METAR Data
IDs: Format: Raw Decoded Include TAF

Data at: 0725 UTC 23 Feb 2019

KEBG 230715Z AUTO 00000KT 1/2SM FG OVC002 21/20 A2981 RMK AO2 T02060198
KEBG 230655Z AUTO 00000KT 1/2SM FG OVC002 21/20 A2981 RMK AO2 T02060198
KEBG 230635Z AUTO 10003KT 1/2SM FG OVC002 21/20 A2982 RMK AO2 T02050197
KEBG 230615Z AUTO 00000KT 1/4SM FG OVC002 21/20 A2982 RMK AO2 T02050195
KEBG 230555Z AUTO 10005KT 1/2SM FG OVC002 21/20 A2983 RMK AO2 T02050195 10205 20198 402050155
KEBG 230535Z AUTO 10004KT 1/2SM FG OVC002 20/19 A2984 RMK AO2 T02030194
KEBG 230515Z AUTO 08003KT 3/4SM BR OVC002 20/19 A2985 RMK AO2 T02030193
KEBG 230455Z AUTO 09003KT 1/2SM FG OVC002 20/19 A2985 RMK AO2 T02030193
KEBG 230435Z AUTO 09004KT 1/4SM FG OVC002 20/19 A2985 RMK AO2 T02030192
KEBG 230415Z AUTO 00000KT 1/4SM FG OVC002 20/19 A2985 RMK AO2 T02020190
KEBG 230355Z AUTO 09003KT 1SM BR OVC002 20/19 A2985 RMK AO2 T02020188
KEBG 230335Z AUTO 09003KT 2 1/2SM BR OVC004 20/19 A2985 RMK AO2 T02010186
KEBG 230315Z AUTO 07004KT 3SM BR OVC004 20/19 A2986 RMK AO2 T02010185
KEBG 230255Z AUTO 05004KT 4SM BR OVC004 20/18 A2985 RMK AO2 T02010182
KEBG 230235Z AUTO 06003KT 5SM BR OVC006 20/18 A2985 RMK AO2 T02000181
KEBG 230215Z AUTO 00000KT 5SM BR OVC006 20/18 A2985 RMK AO2 T02000180
KEBG 230155Z AUTO 00000KT 5SM BR SCT006 BKN011 OVC019 20/18 A2985 RMK AO2 T02000180
KEBG 230135Z AUTO 00000KT 4SM BR OVC011 20/18 A2984 RMK AO2 T02000180
KEBG 230115Z AUTO 00000KT 5SM BR OVC009 20/18 A2984 RMK AO2 T02000180
KEBG 230055Z AUTO 00000KT 5SM BR OVC007 20/18 A2984 RMK AO2 T01990180
KEBG 230035Z AUTO 03003KT 5SM BR OVC007 20/18 A2983 RMK AO2 T01980180
KEBG 230015Z AUTO 03003KT 5SM BR OVC007 20/18 A2983 RMK AO2 T01980178
KEBG 222355Z AUTO 02003KT 4SM BR OVC007 20/18 A2983 RMK AO2 T01980177 10200 20170
KEBG 222335Z AUTO 04004KT 4SM BR OVC007 20/18 A2982 RMK AO2 T01990176
KEBG 222315Z AUTO 02003KT 5SM BR OVC007 20/18 A2982 RMK AO2 T01980176
KEBG 222255Z AUTO 06003KT 5SM BR OVC007 20/18 A2982 RMK AO2 T01970175
KEBG 222235Z AUTO 04003KT 5SM BR OVC007 20/17 A2982 RMK AO2 T01960174
KEBG 222215Z AUTO 03004KT 5SM HZ OVC007 20/17 A2982 RMK AO2 T01980174
KEBG 222155Z AUTO 05004KT 5SM HZ OVC007 20/18 A2982 RMK AO2 T01970175
KEBG 222135Z AUTO 01004KT 4SM BR OVC007 20/17 A2983 RMK AO2 T01950173
KEBG 222115Z AUTO 02003KT 4SM BR OVC007 19/17 A2983 RMK AO2 T01930171
KEBG 222055Z AUTO 36003KT 5SM HZ OVC007 19/17 A2983 RMK AO2 T01930169
KEBG 222035Z AUTO 01004KT 5SM HZ OVC007 19/17 A2984 RMK AO2 T01920169
KEBG 222015Z AUTO 02003KT 5SM BR OVC007 19/17 A2984 RMK AO2 T01880168
KEBG 221955Z AUTO 01004KT 5SM BR OVC005 19/17 A2985 RMK AO2 T01850165
KEBG 221935Z AUTO 36006KT 5SM BR OVC005 19/16 A2986 RMK AO2 T01850164
KEBG 221915Z AUTO 36005KT 5SM BR OVC005 19/17 A2987 RMK AO2 T01850165
KEBG 221855Z AUTO 03004KT 5SM BR OVC005 18/16 A2989 RMK AO2 T01800163
KEBG 221835Z AUTO 01004KT 5SM BR OVC005 18/16 A2990 RMK AO2 T01790164
KEBG 221815Z AUTO 01006KT 5SM BR OVC003 18/16 A2991 RMK AO2 T01750162
KEBG 221755Z AUTO 01004KT 5SM BR OVC003 17/16 A2992 RMK AO2 T01700158 10172 20155
KEBG 221735Z AUTO 36003KT 4SM BR OVC003 17/16 A2993 RMK AO2 T01690158
KEBG 221715Z AUTO 02005KT 4SM BR OVC003 17/16 A2993 RMK AO2 T01660156
KEBG 221655Z AUTO 02005KT 3SM BR OVC003 17/16 A2994 RMK AO2 T01650155
KEBG 221635Z AUTO 36005KT 4SM BR OVC003 16/15 A2995 RMK AO2 T01610152
KEBG 221615Z AUTO 34006KT 4SM BR OVC003 16/15 A2995 RMK AO2 T01600151
KEBG 221555Z AUTO 01005KT 4SM RA OVC003 16/15 A2994 RMK AO2 T01570149
KEBG 221535Z AUTO 36006KT 4SM -DZ OVC003 16/15 A2994 RMK AO2 T01580150
KEBG 221515Z AUTO 01006KT 3SM BR OVC003 16/15 A2994 RMK AO2 T01570150
KEBG 221455Z AUTO 01007KT 4SM BR OVC005 16/15 A2994 RMK AO2 T01570150
KEBG 221435Z AUTO 02007KT 3SM -DZ OVC003 16/15 A2993 RMK AO2 T01560148
KEBG 221415Z AUTO 01005KT 3SM DZ BKN003 OVC007 16/15 A2993 RMK AO2 T01560149
KEBG 221355Z AUTO 35006KT 3SM +RA OVC003 16/15 A2992 RMK AO2 T01570150
KEBG 221335Z AUTO 36006KT 4SM BR OVC003 16/15 A2991 RMK AO2 T01570150
KEBG 221315Z AUTO 01005KT 5SM BR OVC003 16/15 A2990 RMK AO2 T01580151
KEBG 221255Z AUTO 01005KT 5SM BR OVC003 16/15 A2990 RMK AO2 T01590152
KEBG 221235Z AUTO 01007KT 4SM +DZ OVC003 16/15 A2989 RMK AO2 T01600153
KEBG 221215Z AUTO 02007KT 4SM -DZ OVC003 16/16 A2988 RMK AO2 T01610155
KEBG 221155Z AUTO 36007KT 2 1/2SM -DZ OVC003 16/16 A2988 RMK AO2 T01630156 10175 20163
KEBG 221135Z AUTO 01006KT 1 3/4SM -DZ OVC003 17/16 A2987 RMK AO2 T01650157
KEBG 221115Z AUTO 36006KT 1 1/4SM -DZ OVC003 17/16 A2987 RMK AO2 T01660160
KEBG 221055Z AUTO 36006KT 1SM BR OVC003 17/16 A2987 RMK AO2 T01680160
KEBG 221035Z AUTO 35005KT 3/4SM BR OVC003 17/16 A2986 RMK AO2 T01710163
KEBG 221015Z AUTO 01003KT 1 1/4SM BR OVC003 17/17 A2986 RMK AO2 T01720165
KEBG 220955Z AUTO 05003KT 1 3/4SM BR OVC003 17/17 A2985 RMK AO2 T01730165
KEBG 220935Z AUTO 02004KT 2SM BR OVC003 17/17 A2985 RMK AO2 T01730165
KEBG 220915Z AUTO 03003KT 1 3/4SM BR OVC003 17/17 A2985 RMK AO2 T01730165
KEBG 220855Z AUTO 02005KT 1 1/2SM BR OVC003 17/17 A2985 RMK AO2 T01740166
KEBG 220835Z AUTO 04004KT 3/4SM BR OVC003 17/17 A2985 RMK AO2 T01730165
KEBG 220815Z AUTO 02003KT 1SM BR OVC003 17/17 A2986 RMK AO2 T01730165
KEBG 220755Z AUTO 03003KT 3/4SM BR OVC003 17/17 A2987 RMK AO2 T01720165
KEBG 220735Z AUTO 03004KT 3/4SM BR OVC003 17/16 A2987 RMK AO2 T01710163
KEBG 220715Z AUTO 02003KT 1SM BR OVC003 17/16 A2987 RMK AO2 T01710162
KEBG 220655Z AUTO 04003KT 3/4SM BR OVC003 17/16 A2987 RMK AO2 T01710162
KEBG 220635Z AUTO 03003KT 1/4SM FG OVC003 17/16 A2988 RMK AO2 T01700160
KEBG 220615Z AUTO 02003KT 1/4SM FG OVC003 17/16 A2989 RMK AO2 T01700160
KEBG 220555Z AUTO 36003KT 1/2SM FG OVC003 17/16 A2989 RMK AO2 T01700160 10174 20165 401790150
KEBG 220535Z AUTO 06003KT 1/2SM FG OVC003 17/16 A2989 RMK AO2 T01700160
KEBG 220515Z AUTO 00000KT 3/4SM BR OVC003 17/16 A2989 RMK AO2 T01680156
KEBG 220455Z AUTO 07005KT 3/4SM BR OVC003 17/16 A2988 RMK AO2 T01670155
KEBG 220435Z AUTO 09003KT 4SM BR OVC003 17/15 A2988 RMK AO2 T01660151
KEBG 220415Z AUTO 07005KT 5SM BR OVC005 17/15 A2987 RMK AO2 T01660150
KEBG 220355Z AUTO 07005KT 7SM OVC005 17/15 A2987 RMK AO2 T01660150
KEBG 220335Z AUTO 08005KT 7SM OVC005 17/15 A2988 RMK AO2 T01650148
KEBG 220315Z AUTO 06005KT 7SM OVC005 17/15 A2987 RMK AO2 T01660150
KEBG 220255Z AUTO 08007KT 7SM OVC007 17/15 A2988 RMK AO2 T01660150
KEBG 220235Z AUTO 06008KT 7SM OVC007 17/15 A2987 RMK AO2 T01660147
KEBG 220215Z AUTO 07007KT 7SM OVC007 17/15 A2985 RMK AO2 T01700150
KEBG 220155Z AUTO 06007KT 10SM OVC007 17/15 A2985 RMK AO2 T01700148
KEBG 220135Z AUTO 06006KT 10SM OVC007 17/15 A2985 RMK AO2 T01730150
KEBG 220115Z AUTO 05005KT 10SM OVC007 17/15 A2984 RMK AO2 T01740150
KEBG 220055Z AUTO 05005KT 10SM OVC007 17/15 A2983 RMK AO2 T01730150
KEBG 220035Z AUTO 05005KT 10SM OVC007 17/15 A2982 RMK AO2 T01730149
KEBG 220015Z AUTO 05007KT 10SM OVC007 17/15 A2981 RMK AO2 T01720148
KEBG 212355Z AUTO 06008KT 10SM OVC007 17/15 A2980 RMK AO2 T01720146 10179 20156
KEBG 212335Z AUTO 04008KT 10SM OVC007 17/15 A2980 RMK AO2 T01720146
KEBG 212315Z AUTO 06009KT 10SM OVC007 18/15 A2980 RMK AO2 T01750145
KEBG 212255Z AUTO 06008KT 10SM OVC009 17/14 A2981 RMK AO2 T01740144
KEBG 212235Z AUTO 04007KT 10SM OVC009 18/14 A2981 RMK AO2 T01750143
KEBG 212215Z AUTO 07007KT 10SM OVC009 18/14 A2981 RMK AO2 T01750144
KEBG 212155Z AUTO 02009KT 10SM OVC009 18/14 A2980 RMK AO2 T01780144
KEBG 212135Z AUTO 02008KT 10SM OVC007 18/15 A2980 RMK AO2 T01770145
KEBG 212115Z AUTO 01007KT 10SM OVC007 18/14 A2980 RMK AO2 T01760144
KEBG 212055Z AUTO 03008KT 10SM OVC007 18/15 A2980 RMK AO2 T01780146
KEBG 212035Z AUTO 04007KT 10SM OVC007 18/15 A2981 RMK AO2 T01760149
KEBG 212015Z AUTO 04007KT 10SM OVC007 17/15 A2982 RMK AO2 T01720145
KEBG 211955Z AUTO 02007KT 10SM OVC007 17/15 A2983 RMK AO2 T01710145
KEBG 211935Z AUTO 04008KT 10SM OVC007 17/14 A2985 RMK AO2 T01720144